sensor_id;sensor_type;location;lat;lon;timestamp;pressure;altitude;pressure_sealevel;temperature;humidity
20696;BME280;10507;52.754;13.040;2022-07-29T00:00:15;101367.28;;;14.25;90.10
20696;BME280;10507;52.754;13.040;2022-07-29T00:02:44;101367.44;;;14.22;90.29
20696;BME280;10507;52.754;13.040;2022-07-29T00:05:12;101369.25;;;14.21;90.82
20696;BME280;10507;52.754;13.040;2022-07-29T00:07:39;101368.69;;;14.14;90.52
20696;BME280;10507;52.754;13.040;2022-07-29T00:10:08;101366.38;;;14.08;90.83
20696;BME280;10507;52.754;13.040;2022-07-29T00:12:36;101377.25;;;14.05;91.14
20696;BME280;10507;52.754;13.040;2022-07-29T00:15:05;101378.34;;;14.01;91.85
20696;BME280;10507;52.754;13.040;2022-07-29T00:17:33;101383.84;;;14.00;91.31
20696;BME280;10507;52.754;13.040;2022-07-29T00:20:03;101384.88;;;13.97;92.71
20696;BME280;10507;52.754;13.040;2022-07-29T00:22:31;101372.69;;;13.90;92.20
20696;BME280;10507;52.754;13.040;2022-07-29T00:24:58;101396.22;;;13.85;92.45
20696;BME280;10507;52.754;13.040;2022-07-29T00:27:26;101383.22;;;13.77;93.47
20696;BME280;10507;52.754;13.040;2022-07-29T00:29:54;101388.59;;;13.77;93.19
20696;BME280;10507;52.754;13.040;2022-07-29T00:32:21;101393.41;;;13.70;93.33
20696;BME280;10507;52.754;13.040;2022-07-29T00:34:49;101392.75;;;13.65;93.99
20696;BME280;10507;52.754;13.040;2022-07-29T00:37:36;101392.84;;;13.64;94.19
20696;BME280;10507;52.754;13.040;2022-07-29T00:40:05;101395.59;;;13.62;94.17
20696;BME280;10507;52.754;13.040;2022-07-29T00:42:41;101389.53;;;13.59;94.12
20696;BME280;10507;52.754;13.040;2022-07-29T00:45:09;101396.78;;;13.57;94.37
20696;BME280;10507;52.754;13.040;2022-07-29T00:47:37;101407.97;;;13.65;95.00
20696;BME280;10507;52.754;13.040;2022-07-29T00:50:07;101390.38;;;13.59;95.28
20696;BME280;10507;52.754;13.040;2022-07-29T00:52:38;101390.53;;;13.56;95.64
20696;BME280;10507;52.754;13.040;2022-07-29T00:55:09;101385.31;;;13.53;95.50
20696;BME280;10507;52.754;13.040;2022-07-29T00:57:37;101396.06;;;13.53;95.50
20696;BME280;10507;52.754;13.040;2022-07-29T01:00:08;101400.63;;;13.51;95.71
20696;BME280;10507;52.754;13.040;2022-07-29T01:02:36;101397.16;;;13.49;95.65
20696;BME280;10507;52.754;13.040;2022-07-29T01:05:05;101407.09;;;13.47;95.88
20696;BME280;10507;52.754;13.040;2022-07-29T01:07:34;101405.38;;;13.46;95.66
20696;BME280;10507;52.754;13.040;2022-07-29T01:10:04;101400.13;;;13.43;95.95
20696;BME280;10507;52.754;13.040;2022-07-29T01:12:34;101395.72;;;13.42;96.63
20696;BME280;10507;52.754;13.040;2022-07-29T01:15:04;101391.63;;;13.35;96.92
20696;BME280;10507;52.754;13.040;2022-07-29T01:17:36;101397.31;;;13.27;97.23
20696;BME280;10507;52.754;13.040;2022-07-29T01:20:25;101408.13;;;13.25;97.20
20696;BME280;10507;52.754;13.040;2022-07-29T01:23:18;101402.22;;;13.19;97.38
20696;BME280;10507;52.754;13.040;2022-07-29T01:26:10;101409.34;;;13.18;97.72
20696;BME280;10507;52.754;13.040;2022-07-29T01:28:54;101408.38;;;13.21;98.14
20696;BME280;10507;52.754;13.040;2022-07-29T01:31:35;101384.38;;;13.18;98.27
20696;BME280;10507;52.754;13.040;2022-07-29T01:34:29;101386.47;;;13.11;98.62
20696;BME280;10507;52.754;13.040;2022-07-29T01:37:06;101395.53;;;13.08;98.10
20696;BME280;10507;52.754;13.040;2022-07-29T01:39:36;101394.84;;;13.05;98.89
20696;BME280;10507;52.754;13.040;2022-07-29T01:42:12;101390.41;;;13.04;98.84
20696;BME280;10507;52.754;13.040;2022-07-29T01:44:50;101378.94;;;13.00;99.23
20696;BME280;10507;52.754;13.040;2022-07-29T01:47:23;101382.59;;;12.99;99.01
20696;BME280;10507;52.754;13.040;2022-07-29T01:49:54;101377.50;;;12.93;99.30
20696;BME280;10507;52.754;13.040;2022-07-29T01:52:31;101381.09;;;12.94;99.77
20696;BME280;10507;52.754;13.040;2022-07-29T01:55:06;101383.66;;;12.95;99.83
20696;BME280;10507;52.754;13.040;2022-07-29T01:57:36;101381.84;;;12.96;100.00
20696;BME280;10507;52.754;13.040;2022-07-29T02:00:08;101373.75;;;12.97;100.00
20696;BME280;10507;52.754;13.040;2022-07-29T02:02:37;101369.25;;;12.98;100.00
20696;BME280;10507;52.754;13.040;2022-07-29T02:05:07;101368.31;;;12.99;100.00
20696;BME280;10507;52.754;13.040;2022-07-29T02:07:37;101373.69;;;12.99;100.00
20696;BME280;10507;52.754;13.040;2022-07-29T02:10:08;101365.53;;;13.00;100.00
20696;BME280;10507;52.754;13.040;2022-07-29T02:12:39;101369.25;;;12.98;100.00
20696;BME280;10507;52.754;13.040;2022-07-29T02:15:10;101375.56;;;12.97;100.00
20696;BME280;10507;52.754;13.040;2022-07-29T02:17:42;101376.44;;;12.97;100.00
20696;BME280;10507;52.754;13.040;2022-07-29T02:20:12;101387.16;;;12.97;100.00
20696;BME280;10507;52.754;13.040;2022-07-29T02:23:04;101380.06;;;12.96;100.00
20696;BME280;10507;52.754;13.040;2022-07-29T02:25:33;101382.06;;;12.91;100.00
20696;BME280;10507;52.754;13.040;2022-07-29T02:28:05;101387.44;;;12.91;100.00
20696;BME280;10507;52.754;13.040;2022-07-29T02:30:36;101390.22;;;12.89;100.00
20696;BME280;10507;52.754;13.040;2022-07-29T02:33:07;101386.72;;;12.87;100.00
20696;BME280;10507;52.754;13.040;2022-07-29T02:35:36;101390.34;;;12.86;100.00
20696;BME280;10507;52.754;13.040;2022-07-29T02:38:04;101406.19;;;12.91;100.00
20696;BME280;10507;52.754;13.040;2022-07-29T02:40:50;101406.13;;;12.93;100.00
20696;BME280;10507;52.754;13.040;2022-07-29T02:43:20;101402.53;;;12.94;100.00
20696;BME280;10507;52.754;13.040;2022-07-29T02:45:52;101391.88;;;12.92;100.00
20696;BME280;10507;52.754;13.040;2022-07-29T02:48:27;101399.06;;;12.92;100.00
20696;BME280;10507;52.754;13.040;2022-07-29T02:51:05;101402.81;;;12.87;100.00
20696;BME280;10507;52.754;13.040;2022-07-29T02:53:38;101414.19;;;12.93;100.00
20696;BME280;10507;52.754;13.040;2022-07-29T02:56:11;101399.97;;;12.90;100.00
20696;BME280;10507;52.754;13.040;2022-07-29T02:58:44;101405.22;;;12.94;100.00
20696;BME280;10507;52.754;13.040;2022-07-29T03:01:20;101413.16;;;12.95;100.00
20696;BME280;10507;52.754;13.040;2022-07-29T03:03:49;101413.91;;;12.99;100.00
20696;BME280;10507;52.754;13.040;2022-07-29T03:06:19;101412.81;;;13.03;100.00
20696;BME280;10507;52.754;13.040;2022-07-29T03:09:04;101402.56;;;13.11;100.00
20696;BME280;10507;52.754;13.040;2022-07-29T03:11:38;101396.19;;;13.14;100.00
20696;BME280;10507;52.754;13.040;2022-07-29T03:14:16;101380.81;;;13.17;100.00
20696;BME280;10507;52.754;13.040;2022-07-29T03:16:48;101382.47;;;13.20;100.00
20696;BME280;10507;52.754;13.040;2022-07-29T03:19:17;101373.56;;;13.19;100.00
20696;BME280;10507;52.754;13.040;2022-07-29T03:21:45;101377.97;;;13.20;100.00
20696;BME280;10507;52.754;13.040;2022-07-29T03:24:24;101370.81;;;13.21;100.00
20696;BME280;10507;52.754;13.040;2022-07-29T03:26:54;101368.22;;;13.19;100.00
20696;BME280;10507;52.754;13.040;2022-07-29T03:29:22;101376.25;;;13.19;100.00
20696;BME280;10507;52.754;13.040;2022-07-29T03:32:00;101380.66;;;13.20;100.00
20696;BME280;10507;52.754;13.040;2022-07-29T03:34:29;101363.88;;;13.17;100.00
20696;BME280;10507;52.754;13.040;2022-07-29T03:36:57;101377.06;;;13.21;100.00
20696;BME280;10507;52.754;13.040;2022-07-29T03:39:27;101361.88;;;13.20;100.00
20696;BME280;10507;52.754;13.040;2022-07-29T03:41:59;101360.31;;;13.16;100.00
20696;BME280;10507;52.754;13.040;2022-07-29T03:44:28;101372.94;;;13.14;100.00
20696;BME280;10507;52.754;13.040;2022-07-29T03:47:00;101373.88;;;13.13;100.00
20696;BME280;10507;52.754;13.040;2022-07-29T03:49:29;101375.63;;;13.14;100.00
20696;BME280;10507;52.754;13.040;2022-07-29T03:51:58;101379.84;;;13.18;100.00
20696;BME280;10507;52.754;13.040;2022-07-29T03:54:26;101387.84;;;13.20;100.00
20696;BME280;10507;52.754;13.040;2022-07-29T03:56:54;101385.78;;;13.25;100.00
20696;BME280;10507;52.754;13.040;2022-07-29T03:59:26;101374.97;;;13.28;100.00
20696;BME280;10507;52.754;13.040;2022-07-29T04:01:55;101375.75;;;13.30;100.00
20696;BME280;10507;52.754;13.040;2022-07-29T04:04:26;101382.63;;;13.36;100.00
20696;BME280;10507;52.754;13.040;2022-07-29T04:06:54;101372.44;;;13.42;100.00
20696;BME280;10507;52.754;13.040;2022-07-29T04:09:21;101374.91;;;13.47;100.00
20696;BME280;10507;52.754;13.040;2022-07-29T04:11:49;101373.06;;;13.47;99.90
20696;BME280;10507;52.754;13.040;2022-07-29T04:14:29;101368.44;;;13.51;99.54
20696;BME280;10507;52.754;13.040;2022-07-29T04:16:57;101362.13;;;13.52;99.28
20696;BME280;10507;52.754;13.040;2022-07-29T04:19:26;101366.63;;;13.51;99.97
20696;BME280;10507;52.754;13.040;2022-07-29T04:21:53;101376.19;;;13.57;99.73
20696;BME280;10507;52.754;13.040;2022-07-29T04:24:21;101373.25;;;13.62;99.36
20696;BME280;10507;52.754;13.040;2022-07-29T04:26:49;101387.38;;;13.65;98.69
20696;BME280;10507;52.754;13.040;2022-07-29T04:29:17;101381.69;;;13.71;98.49
20696;BME280;10507;52.754;13.040;2022-07-29T04:31:46;101376.19;;;13.75;98.95
20696;BME280;10507;52.754;13.040;2022-07-29T04:34:14;101374.91;;;13.82;98.68
20696;BME280;10507;52.754;13.040;2022-07-29T04:36:43;101373.03;;;13.84;97.94
20696;BME280;10507;52.754;13.040;2022-07-29T04:39:11;101392.50;;;13.87;98.42
20696;BME280;10507;52.754;13.040;2022-07-29T04:41:43;101379.81;;;13.91;97.78
20696;BME280;10507;52.754;13.040;2022-07-29T04:44:11;101351.94;;;13.93;97.66
20696;BME280;10507;52.754;13.040;2022-07-29T04:46:39;101374.81;;;14.01;97.25
20696;BME280;10507;52.754;13.040;2022-07-29T04:49:07;101383.03;;;14.15;96.72
20696;BME280;10507;52.754;13.040;2022-07-29T04:51:35;101358.50;;;14.21;96.68
20696;BME280;10507;52.754;13.040;2022-07-29T04:54:04;101417.13;;;14.64;95.71
20696;BME280;10507;52.754;13.040;2022-07-29T04:56:32;101370.78;;;14.92;93.98
20696;BME280;10507;52.754;13.040;2022-07-29T04:59:00;101425.44;;;15.70;92.22
20696;BME280;10507;52.754;13.040;2022-07-29T05:01:27;101398.16;;;16.78;89.18
20696;BME280;10507;52.754;13.040;2022-07-29T05:03:55;101298.28;;;17.34;84.59
20696;BME280;10507;52.754;13.040;2022-07-29T05:06:26;101213.41;;;17.64;82.72
20696;BME280;10507;52.754;13.040;2022-07-29T05:08:53;100991.69;;;17.06;82.17
20696;BME280;10507;52.754;13.040;2022-07-29T05:11:22;101081.81;;;17.03;83.58
20696;BME280;10507;52.754;13.040;2022-07-29T05:13:55;101045.84;;;16.65;84.99
20696;BME280;10507;52.754;13.040;2022-07-29T05:16:23;101126.16;;;16.87;85.43
20696;BME280;10507;52.754;13.040;2022-07-29T05:18:51;101152.72;;;17.18;84.13
20696;BME280;10507;52.754;13.040;2022-07-29T05:21:18;101193.09;;;17.71;83.30
20696;BME280;10507;52.754;13.040;2022-07-29T05:23:46;101177.94;;;18.07;81.67
20696;BME280;10507;52.754;13.040;2022-07-29T05:26:14;101092.03;;;17.99;80.78
20696;BME280;10507;52.754;13.040;2022-07-29T05:28:43;100944.84;;;17.20;81.34
20696;BME280;10507;52.754;13.040;2022-07-29T05:31:10;101033.00;;;17.32;82.41
20696;BME280;10507;52.754;13.040;2022-07-29T05:33:40;101004.03;;;16.97;83.64
20696;BME280;10507;52.754;13.040;2022-07-29T05:36:08;100965.91;;;16.63;84.81
20696;BME280;10507;52.754;13.040;2022-07-29T05:38:36;100994.41;;;16.55;85.47
20696;BME280;10507;52.754;13.040;2022-07-29T05:41:04;100985.50;;;16.27;86.06
20696;BME280;10507;52.754;13.040;2022-07-29T05:43:32;101026.78;;;16.15;87.38
20696;BME280;10507;52.754;13.040;2022-07-29T05:46:02;101040.94;;;16.04;88.07
20696;BME280;10507;52.754;13.040;2022-07-29T05:48:29;101091.91;;;16.07;88.52
20696;BME280;10507;52.754;13.040;2022-07-29T05:50:57;101089.22;;;16.07;88.36
20696;BME280;10507;52.754;13.040;2022-07-29T05:53:25;101093.84;;;16.05;88.22
20696;BME280;10507;52.754;13.040;2022-07-29T05:55:53;101171.91;;;16.34;88.37
20696;BME280;10507;52.754;13.040;2022-07-29T05:58:21;101189.13;;;16.58;87.34
20696;BME280;10507;52.754;13.040;2022-07-29T06:00:48;101119.22;;;16.42;87.30
20696;BME280;10507;52.754;13.040;2022-07-29T06:03:18;101117.19;;;16.46;87.29
20696;BME280;10507;52.754;13.040;2022-07-29T06:05:45;101134.00;;;16.50;86.57
20696;BME280;10507;52.754;13.040;2022-07-29T06:08:13;101098.06;;;16.36;87.11
20696;BME280;10507;52.754;13.040;2022-07-29T06:10:41;101134.63;;;16.40;87.79
20696;BME280;10507;52.754;13.040;2022-07-29T06:13:08;101153.19;;;16.45;87.60
20696;BME280;10507;52.754;13.040;2022-07-29T06:15:36;101198.75;;;16.62;87.67
20696;BME280;10507;52.754;13.040;2022-07-29T06:18:04;101161.38;;;16.71;86.23
20696;BME280;10507;52.754;13.040;2022-07-29T06:20:37;101196.50;;;16.96;86.00
20696;BME280;10507;52.754;13.040;2022-07-29T06:23:05;101197.00;;;17.16;85.35
20696;BME280;10507;52.754;13.040;2022-07-29T06:25:33;101107.59;;;17.08;84.69
20696;BME280;10507;52.754;13.040;2022-07-29T06:28:02;101205.44;;;17.50;84.23
20696;BME280;10507;52.754;13.040;2022-07-29T06:30:30;101161.81;;;17.56;84.01
20696;BME280;10507;52.754;13.040;2022-07-29T06:32:58;101148.16;;;17.70;83.20
20696;BME280;10507;52.754;13.040;2022-07-29T06:35:26;101130.34;;;17.80;82.64
20696;BME280;10507;52.754;13.040;2022-07-29T06:38:09;101168.97;;;18.06;82.36
20696;BME280;10507;52.754;13.040;2022-07-29T06:40:57;101179.72;;;18.32;81.65
20696;BME280;10507;52.754;13.040;2022-07-29T06:43:31;101085.66;;;18.24;81.16
20696;BME280;10507;52.754;13.040;2022-07-29T06:46:01;101077.34;;;18.27;80.77
20696;BME280;10507;52.754;13.040;2022-07-29T06:48:29;101121.59;;;18.38;80.98
20696;BME280;10507;52.754;13.040;2022-07-29T06:50:57;101119.00;;;18.60;80.52
20696;BME280;10507;52.754;13.040;2022-07-29T06:53:27;101186.50;;;19.21;79.51
20696;BME280;10507;52.754;13.040;2022-07-29T06:55:54;101134.19;;;19.21;78.92
20696;BME280;10507;52.754;13.040;2022-07-29T06:58:22;101153.44;;;19.63;77.77
20696;BME280;10507;52.754;13.040;2022-07-29T07:00:50;101108.34;;;19.62;77.55
20696;BME280;10507;52.754;13.040;2022-07-29T07:03:19;101051.47;;;19.62;76.73
20696;BME280;10507;52.754;13.040;2022-07-29T07:05:47;101129.16;;;20.06;76.09
20696;BME280;10507;52.754;13.040;2022-07-29T07:08:14;101171.03;;;20.68;74.97
20696;BME280;10507;52.754;13.040;2022-07-29T07:10:44;101175.31;;;21.45;72.60
20696;BME280;10507;52.754;13.040;2022-07-29T07:13:13;101025.75;;;22.26;68.68
20696;BME280;10507;52.754;13.040;2022-07-29T07:15:43;101055.81;;;22.44;68.18
20696;BME280;10507;52.754;13.040;2022-07-29T07:18:11;101106.94;;;23.18;66.74
20696;BME280;10507;52.754;13.040;2022-07-29T07:20:39;101172.75;;;24.08;65.16
20696;BME280;10507;52.754;13.040;2022-07-29T07:23:06;101218.06;;;25.18;62.28
20696;BME280;10507;52.754;13.040;2022-07-29T07:25:34;101253.44;;;26.50;59.64
20696;BME280;10507;52.754;13.040;2022-07-29T07:28:05;100910.88;;;26.77;57.50
20696;BME280;10507;52.754;13.040;2022-07-29T07:30:33;100790.00;;;26.24;57.41
20696;BME280;10507;52.754;13.040;2022-07-29T07:33:01;100958.38;;;27.08;57.31
20696;BME280;10507;52.754;13.040;2022-07-29T07:35:29;100754.66;;;26.45;57.32
20696;BME280;10507;52.754;13.040;2022-07-29T07:37:57;100743.63;;;26.30;58.07
20696;BME280;10507;52.754;13.040;2022-07-29T07:40:24;100599.84;;;25.56;58.64
20696;BME280;10507;52.754;13.040;2022-07-29T07:42:52;100557.13;;;24.58;61.12
20696;BME280;10507;52.754;13.040;2022-07-29T07:45:22;100624.09;;;24.19;62.65
20696;BME280;10507;52.754;13.040;2022-07-29T07:47:50;100502.81;;;23.20;63.36
20696;BME280;10507;52.754;13.040;2022-07-29T07:50:17;100654.34;;;23.39;64.06
20696;BME280;10507;52.754;13.040;2022-07-29T07:52:47;100783.19;;;24.20;62.82
20696;BME280;10507;52.754;13.040;2022-07-29T07:55:15;100820.16;;;24.83;61.08
20696;BME280;10507;52.754;13.040;2022-07-29T07:57:43;100773.19;;;24.79;62.62
20696;BME280;10507;52.754;13.040;2022-07-29T08:00:12;100890.06;;;25.61;60.23
20696;BME280;10507;52.754;13.040;2022-07-29T08:02:42;100966.13;;;26.96;57.70
20696;BME280;10507;52.754;13.040;2022-07-29T08:05:12;100959.59;;;27.45;57.31
20696;BME280;10507;52.754;13.040;2022-07-29T08:07:44;100995.22;;;28.54;54.52
20696;BME280;10507;52.754;13.040;2022-07-29T08:10:13;100663.31;;;27.68;53.78
20696;BME280;10507;52.754;13.040;2022-07-29T08:12:42;100876.50;;;28.44;54.01
20696;BME280;10507;52.754;13.040;2022-07-29T08:15:09;100870.38;;;28.86;53.00
20696;BME280;10507;52.754;13.040;2022-07-29T08:17:37;100754.41;;;28.46;53.38
20696;BME280;10507;52.754;13.040;2022-07-29T08:20:07;100744.63;;;28.58;53.43
20696;BME280;10507;52.754;13.040;2022-07-29T08:22:34;100638.09;;;28.39;52.80
20696;BME280;10507;52.754;13.040;2022-07-29T08:25:02;100734.88;;;28.71;53.05
20696;BME280;10507;52.754;13.040;2022-07-29T08:27:30;100681.59;;;28.72;53.04
20696;BME280;10507;52.754;13.040;2022-07-29T08:30:10;100628.81;;;28.55;53.33
20696;BME280;10507;52.754;13.040;2022-07-29T08:32:37;100608.72;;;28.54;52.52
20696;BME280;10507;52.754;13.040;2022-07-29T08:35:23;100547.72;;;28.44;51.99
20696;BME280;10507;52.754;13.040;2022-07-29T08:37:52;100459.53;;;27.74;52.62
20696;BME280;10507;52.754;13.040;2022-07-29T08:40:20;100449.69;;;27.44;53.17
20696;BME280;10507;52.754;13.040;2022-07-29T08:42:58;100659.09;;;28.10;54.23
20696;BME280;10507;52.754;13.040;2022-07-29T08:45:27;100635.94;;;28.34;52.90
20696;BME280;10507;52.754;13.040;2022-07-29T08:47:56;100461.88;;;27.92;51.76
20696;BME280;10507;52.754;13.040;2022-07-29T08:50:25;100481.50;;;27.74;52.11
20696;BME280;10507;52.754;13.040;2022-07-29T08:52:53;100374.56;;;27.23;52.81
20696;BME280;10507;52.754;13.040;2022-07-29T08:55:25;100481.38;;;27.31;54.32
20696;BME280;10507;52.754;13.040;2022-07-29T08:57:54;100516.06;;;27.54;53.33
20696;BME280;10507;52.754;13.040;2022-07-29T09:00:23;100444.78;;;27.09;53.60
20696;BME280;10507;52.754;13.040;2022-07-29T09:02:57;100481.47;;;27.23;53.47
20696;BME280;10507;52.754;13.040;2022-07-29T09:05:27;100491.03;;;27.27;54.19
20696;BME280;10507;52.754;13.040;2022-07-29T09:07:55;100391.28;;;26.99;52.93
20696;BME280;10507;52.754;13.040;2022-07-29T09:10:23;100396.59;;;27.00;52.77
20696;BME280;10507;52.754;13.040;2022-07-29T09:12:51;100426.06;;;27.13;52.79
20696;BME280;10507;52.754;13.040;2022-07-29T09:15:19;100449.50;;;27.30;52.67
20696;BME280;10507;52.754;13.040;2022-07-29T09:17:48;100373.44;;;27.03;52.21
20696;BME280;10507;52.754;13.040;2022-07-29T09:20:17;100350.94;;;26.92;52.38
20696;BME280;10507;52.754;13.040;2022-07-29T09:22:47;100520.97;;;27.44;53.02
20696;BME280;10507;52.754;13.040;2022-07-29T09:25:32;100475.59;;;27.41;52.88
20696;BME280;10507;52.754;13.040;2022-07-29T09:28:07;100389.28;;;27.37;51.94
20696;BME280;10507;52.754;13.040;2022-07-29T09:30:35;100379.75;;;27.18;52.37
20696;BME280;10507;52.754;13.040;2022-07-29T09:33:04;100369.81;;;27.17;52.53
20696;BME280;10507;52.754;13.040;2022-07-29T09:35:32;100395.34;;;27.32;52.37
20696;BME280;10507;52.754;13.040;2022-07-29T09:38:11;100335.22;;;27.16;50.94
20696;BME280;10507;52.754;13.040;2022-07-29T09:40:39;100437.69;;;27.45;51.68
20696;BME280;10507;52.754;13.040;2022-07-29T09:43:10;100309.13;;;27.20;50.89
20696;BME280;10507;52.754;13.040;2022-07-29T09:45:39;100332.41;;;27.24;51.01
20696;BME280;10507;52.754;13.040;2022-07-29T09:48:15;100352.13;;;27.34;50.62
20696;BME280;10507;52.754;13.040;2022-07-29T09:50:45;100337.25;;;27.44;49.91
20696;BME280;10507;52.754;13.040;2022-07-29T09:53:29;100357.31;;;27.66;49.20
20696;BME280;10507;52.754;13.040;2022-07-29T09:55:58;100239.41;;;27.23;49.04
20696;BME280;10507;52.754;13.040;2022-07-29T09:58:25;100204.56;;;26.80;49.46
20696;BME280;10507;52.754;13.040;2022-07-29T10:00:54;100265.19;;;26.77;49.78
20696;BME280;10507;52.754;13.040;2022-07-29T10:03:23;100282.75;;;26.98;48.66
20696;BME280;10507;52.754;13.040;2022-07-29T10:06:05;100341.41;;;27.40;48.05
20696;BME280;10507;52.754;13.040;2022-07-29T10:08:34;100212.41;;;27.26;46.65
20696;BME280;10507;52.754;13.040;2022-07-29T10:11:10;100288.78;;;27.51;47.25
20696;BME280;10507;52.754;13.040;2022-07-29T10:13:38;100271.84;;;27.41;48.16
20696;BME280;10507;52.754;13.040;2022-07-29T10:16:06;100344.25;;;27.68;47.96
20696;BME280;10507;52.754;13.040;2022-07-29T10:18:35;100211.75;;;27.67;45.12
20696;BME280;10507;52.754;13.040;2022-07-29T10:21:03;100184.69;;;27.64;44.96
20696;BME280;10507;52.754;13.040;2022-07-29T10:23:31;100145.81;;;27.54;44.62
20696;BME280;10507;52.754;13.040;2022-07-29T10:26:15;100155.88;;;27.47;44.29
20696;BME280;10507;52.754;13.040;2022-07-29T10:28:43;100166.03;;;27.53;45.05
20696;BME280;10507;52.754;13.040;2022-07-29T10:31:14;100174.78;;;27.63;44.73
20696;BME280;10507;52.754;13.040;2022-07-29T10:33:51;100204.63;;;27.79;44.33
20696;BME280;10507;52.754;13.040;2022-07-29T10:36:32;100196.41;;;27.79;43.97
20696;BME280;10507;52.754;13.040;2022-07-29T10:39:17;100268.84;;;28.13;44.19
20696;BME280;10507;52.754;13.040;2022-07-29T10:42:13;100266.63;;;28.24;44.11
20696;BME280;10507;52.754;13.040;2022-07-29T10:44:46;100318.56;;;28.53;43.93
20696;BME280;10507;52.754;13.040;2022-07-29T10:47:22;100181.88;;;28.20;43.20
20696;BME280;10507;52.754;13.040;2022-07-29T10:49:56;100213.47;;;28.45;42.42
20696;BME280;10507;52.754;13.040;2022-07-29T10:52:54;100141.59;;;28.28;41.35
20696;BME280;10507;52.754;13.040;2022-07-29T10:55:33;100093.44;;;28.18;41.06
20696;BME280;10507;52.754;13.040;2022-07-29T10:58:14;100163.50;;;28.14;42.22
20696;BME280;10507;52.754;13.040;2022-07-29T11:00:44;100104.59;;;27.82;42.04
20696;BME280;10507;52.754;13.040;2022-07-29T11:06:15;100132.75;;;27.91;42.13
20696;BME280;10507;52.754;13.040;2022-07-29T11:09:16;100163.44;;;28.01;42.19
20696;BME280;10507;52.754;13.040;2022-07-29T11:12:04;100248.47;;;28.29;43.07
20696;BME280;10507;52.754;13.040;2022-07-29T11:14:58;100192.44;;;28.17;42.70
20696;BME280;10507;52.754;13.040;2022-07-29T11:17:27;100117.16;;;27.63;43.11
20696;BME280;10507;52.754;13.040;2022-07-29T11:20:31;100137.44;;;27.34;44.13
20696;BME280;10507;52.754;13.040;2022-07-29T11:22:59;100166.34;;;27.36;44.01
20696;BME280;10507;52.754;13.040;2022-07-29T11:25:27;100175.88;;;27.41;44.09
20696;BME280;10507;52.754;13.040;2022-07-29T11:28:17;100150.06;;;27.35;43.16
20696;BME280;10507;52.754;13.040;2022-07-29T11:30:53;100107.88;;;27.08;43.84
20696;BME280;10507;52.754;13.040;2022-07-29T11:33:27;100149.13;;;27.00;44.25
20696;BME280;10507;52.754;13.040;2022-07-29T11:36:15;100189.00;;;27.02;44.80
20696;BME280;10507;52.754;13.040;2022-07-29T11:38:43;100206.47;;;27.01;44.98
20696;BME280;10507;52.754;13.040;2022-07-29T11:41:21;100252.59;;;27.19;45.28
20696;BME280;10507;52.754;13.040;2022-07-29T11:43:50;100245.53;;;27.25;44.63
20696;BME280;10507;52.754;13.040;2022-07-29T11:46:47;100246.78;;;27.22;45.65
20696;BME280;10507;52.754;13.040;2022-07-29T11:49:19;100233.91;;;27.23;44.90
20696;BME280;10507;52.754;13.040;2022-07-29T11:51:58;100247.03;;;27.27;45.20
20696;BME280;10507;52.754;13.040;2022-07-29T11:54:31;100215.94;;;27.20;44.63
20696;BME280;10507;52.754;13.040;2022-07-29T11:57:20;100216.31;;;27.17;45.03
20696;BME280;10507;52.754;13.040;2022-07-29T11:59:48;100260.75;;;27.27;45.47
20696;BME280;10507;52.754;13.040;2022-07-29T12:02:17;100362.63;;;27.67;45.60
20696;BME280;10507;52.754;13.040;2022-07-29T12:05:04;100396.50;;;27.96;45.47
20696;BME280;10507;52.754;13.040;2022-07-29T12:07:51;100415.47;;;28.19;44.92
20696;BME280;10507;52.754;13.040;2022-07-29T12:10:19;100432.78;;;28.41;44.78
20696;BME280;10507;52.754;13.040;2022-07-29T12:12:56;100411.25;;;28.45;44.38
20696;BME280;10507;52.754;13.040;2022-07-29T12:15:24;100460.31;;;28.76;44.60
20696;BME280;10507;52.754;13.040;2022-07-29T12:18:15;100346.03;;;28.53;44.08
20696;BME280;10507;52.754;13.040;2022-07-29T12:20:45;100336.50;;;28.49;44.16
20696;BME280;10507;52.754;13.040;2022-07-29T12:23:13;100272.91;;;28.17;44.45
20696;BME280;10507;52.754;13.040;2022-07-29T12:25:44;100341.44;;;28.32;44.57
20696;BME280;10507;52.754;13.040;2022-07-29T12:28:15;100350.75;;;28.38;44.56
20696;BME280;10507;52.754;13.040;2022-07-29T12:30:52;100300.59;;;28.23;45.14
20696;BME280;10507;52.754;13.040;2022-07-29T12:33:23;100282.59;;;28.13;45.04
20696;BME280;10507;52.754;13.040;2022-07-29T12:35:54;100267.72;;;28.01;44.98
20696;BME280;10507;52.754;13.040;2022-07-29T12:38:33;100252.34;;;27.78;45.80
20696;BME280;10507;52.754;13.040;2022-07-29T12:41:01;100251.03;;;27.74;46.13
20696;BME280;10507;52.754;13.040;2022-07-29T12:43:30;100259.03;;;27.69;46.08
20696;BME280;10507;52.754;13.040;2022-07-29T12:46:11;100272.53;;;27.71;46.08
20696;BME280;10507;52.754;13.040;2022-07-29T12:48:42;100347.09;;;27.96;45.99
20696;BME280;10507;52.754;13.040;2022-07-29T12:51:11;100290.44;;;27.88;45.54
20696;BME280;10507;52.754;13.040;2022-07-29T12:53:41;100285.41;;;27.92;45.42
20696;BME280;10507;52.754;13.040;2022-07-29T12:56:15;100303.41;;;28.01;45.57
20696;BME280;10507;52.754;13.040;2022-07-29T12:59:11;100374.72;;;28.23;45.55
20696;BME280;10507;52.754;13.040;2022-07-29T13:01:39;100283.56;;;27.99;45.48
20696;BME280;10507;52.754;13.040;2022-07-29T13:04:08;100313.75;;;27.99;46.19